Master Jet — 5BKD3 — position and weather

sailwx.info

Track history (hours):
 
Tides and Currents Weather Stations Pressure Air Temp Water Temp Dewpoint Dewpoint Depression Visibility Wind Speed Wind Dir Waves Ship Positions

Master Jet

Last reported at 2015-Aug-01 15:16 UTC. Time now 2015-Aug-01 16:17 UTC.
Position N 37°34' E 024°01'.

Length 74 m; draft 2.9 m.

Type: Ship. MMSI: 209349000.

Date/timePositionNaut miles runAvg speedWind from/ knotsBaromVisibWave heightAir tempDewpointWater temp
2015-Aug-01 15:16N 37°34' E 024°01'1825.0
2015-Aug-01 14:33N 37°42' E 023°42'1414.3
2015-Aug-01 13:33N 37°57' E 023°38'0 0.0
2015-Aug-01 12:33N 37°57' E 023°38'0 0.0
2015-Aug-01 11:34N 37°57' E 023°38'1 1.5
2015-Aug-01 10:34N 37°56' E 023°37'7725.5
2015-Aug-01 07:34N 37°09' E 024°53'1413.8
2015-Aug-01 06:33N 37°09' E 025°11'1211.5
2015-Aug-01 05:33N 37°00' E 025°20'1414.3
2015-Aug-01 04:33N 36°56' E 025°37'13 6.5
2015-Aug-01 02:31N 36°50' E 025°52'12 2.0
2015-Jul-31 20:33N 36°55' E 025°39'1212.3
2015-Jul-31 19:32N 36°56' E 025°23'1615.8
2015-Jul-31 18:33N 37°10' E 025°16'1212.3
2015-Jul-31 17:33N 37°10' E 025°00'5426.3
2015-Jul-31 15:29N 37°35' E 024°00'2325.2
2015-Jul-31 14:34N 37°50' E 023°37'7 7.0
2015-Jul-31 13:34N 37°57' E 023°38'0 0.0
2015-Jul-31 12:33N 37°57' E 023°38'0 0.0
2015-Jul-31 11:34N 37°57' E 023°38'0 0.0
2015-Jul-31 10:34N 37°57' E 023°38'1717.3
2015-Jul-31 09:34N 37°40' E 023°47'5828.8
2015-Jul-31 07:33N 37°15' E 024°52'1615.4
2015-Jul-31 06:33N 37°08' E 025°09'1010.3
2015-Jul-31 05:32N 37°06' E 025°22'0 0.0
2015-Jul-31 04:33N 37°06' E 025°22'0 0.0
2015-Jul-31 03:33N 37°06' E 025°22'0 0.0
2015-Jul-31 02:33N 37°06' E 025°22'0 0.0
2015-Jul-31 01:33N 37°06' E 025°22'0 0.0
2015-Jul-31 00:33N 37°06' E 025°22'0 0.0
2015-Jul-30 23:33N 37°06' E 025°22'0 0.0
2015-Jul-30 22:33N 37°06' E 025°22'0 0.0
2015-Jul-30 21:33N 37°06' E 025°22'0 0.0
2015-Jul-30 20:33N 37°06' E 025°22'0 0.0
2015-Jul-30 19:33N 37°06' E 025°22'2 1.6
2015-Jul-30 18:34N 37°08' E 025°21'1414.0
2015-Jul-30 17:33N 37°08' E 025°04'5527.0
2015-Jul-30 15:31N 37°35' E 024°03'2526.1
2015-Jul-30 14:33N 37°49' E 023°37'7 7.4
2015-Jul-30 13:33N 37°57' E 023°38'0 0.0
2015-Jul-30 12:34N 37°57' E 023°38'0 0.0
2015-Jul-30 11:33N 37°57' E 023°38'0 0.0
2015-Jul-30 10:33N 37°57' E 023°38'1616.0
2015-Jul-30 09:33N 37°42' E 023°46'5828.8
2015-Jul-30 07:34N 37°15' E 024°50'1716.7
2015-Jul-30 06:34N 37°08' E 025°09'1110.8
2015-Jul-30 05:33N 37°06' E 025°22'0 0.0
2015-Jul-30 04:33N 37°06' E 025°22'0 0.0
2015-Jul-30 03:34N 37°06' E 025°22'0 0.0
2015-Jul-30 02:33N 37°06' E 025°22'0 0.0
2015-Jul-30 01:33N 37°06' E 025°22'0 0.0
2015-Jul-30 00:33N 37°06' E 025°22'0 0.0
2015-Jul-29 23:33N 37°06' E 025°22'0 0.0
2015-Jul-29 22:33N 37°06' E 025°22'0 0.0
2015-Jul-29 21:33N 37°06' E 025°22'0 0.0
2015-Jul-29 20:33N 37°06' E 025°22'0 0.0
2015-Jul-29 19:33N 37°06' E 025°22'1 1.2
2015-Jul-29 18:34N 37°07' E 025°21'1514.7
2015-Jul-29 17:33N 37°08' E 025°03'5527.1
2015-Jul-29 15:32N 37°35' E 024°03'2525.5
2015-Jul-29 14:34N 37°50' E 023°38'7 7.0
2015-Jul-29 13:33N 37°57' E 023°38'0 0.0
2015-Jul-29 12:33N 37°57' E 023°38'0 0.0
2015-Jul-29 11:33N 37°57' E 023°38'0 0.0
2015-Jul-29 10:33N 37°57' E 023°38'1414.1
2015-Jul-29 09:34N 37°43' E 023°44'5628.0
2015-Jul-29 07:34N 37°17' E 024°47'2020.4
2015-Jul-29 06:34N 37°05' E 025°08'9 9.3
2015-Jul-29 05:34N 37°05' E 025°19'1716.8
2015-Jul-29 04:33N 36°56' E 025°37'9 1.1
2015-Jul-28 20:20N 36°51' E 025°47'1215.7
2015-Jul-28 19:33N 36°54' E 025°32'1716.9
2015-Jul-28 18:34N 37°08' E 025°21'1514.6
2015-Jul-28 17:33N 37°08' E 025°03'5426.8
2015-Jul-28 15:33N 37°35' E 024°03'2525.8
2015-Jul-28 14:34N 37°50' E 023°37'7 7.1
2015-Jul-28 13:33N 37°57' E 023°38'0 0.0
2015-Jul-28 12:33N 37°57' E 023°38'0 0.0
2015-Jul-28 11:33N 37°57' E 023°38'0 0.0
2015-Jul-28 10:33N 37°57' E 023°38'1716.6
2015-Jul-28 09:33N 37°41' E 023°46'5728.7
2015-Jul-28 07:34N 37°15' E 024°50'1717.2
2015-Jul-28 06:33N 37°08' E 025°11'10 9.8
2015-Jul-28 05:33N 37°06' E 025°22'0 0.0
2015-Jul-28 04:33N 37°06' E 025°22'0 0.0
2015-Jul-28 03:33N 37°06' E 025°22'0 0.0
2015-Jul-28 02:33N 37°06' E 025°22'0 0.0
2015-Jul-28 01:33N 37°06' E 025°22'0 0.0
2015-Jul-28 00:33N 37°06' E 025°22'0 0.0
2015-Jul-27 23:33N 37°06' E 025°22'0 0.0
2015-Jul-27 22:33N 37°06' E 025°22'0 0.0
2015-Jul-27 21:33N 37°06' E 025°22'0 0.0
2015-Jul-27 20:33N 37°06' E 025°22'0 0.0
2015-Jul-27 19:33N 37°06' E 025°22'0 0.0
2015-Jul-27 18:33N 37°06' E 025°22'1212.4
2015-Jul-27 17:33N 37°06' E 025°07'6428.5
2015-Jul-27 15:20N 37°36' E 023°57'2026.3
2015-Jul-27 14:34N 37°50' E 023°38'7 6.6
2015-Jul-27 13:33N 37°57' E 023°38'0 0.0
2015-Jul-27 12:33N 37°57' E 023°38'0 0.0
2015-Jul-27 11:33N 37°57' E 023°38'0 0.0
2015-Jul-27 10:33N 37°57' E 023°38'1414.4
2015-Jul-27 09:33N 37°43' E 023°45'5728.5
2015-Jul-27 07:33N 37°16' E 024°48'1918.8
2015-Jul-27 06:34N 37°06' E 025°08'9 8.9
2015-Jul-27 05:34N 37°04' E 025°19'1817.6
2015-Jul-27 04:33N 36°56' E 025°38'12 1.5
2015-Jul-26 20:31N 36°50' E 025°51'1516.0
2015-Jul-26 19:33N 36°54' E 025°32'1616.2
2015-Jul-26 18:34N 37°07' E 025°21'1413.8
2015-Jul-26 17:33N 37°07' E 025°04'5427.0
2015-Jul-26 15:34N 37°35' E 024°05'2626.0
2015-Jul-26 14:34N 37°49' E 023°38'8 7.7
2015-Jul-26 13:33N 37°57' E 023°38'0 0.0
2015-Jul-26 12:33N 37°57' E 023°38'0 0.0
2015-Jul-26 11:33N 37°57' E 023°38'0 0.0
2015-Jul-26 10:33N 37°57' E 023°38'1817.6
2015-Jul-26 09:34N 37°40' E 023°46'5828.8
2015-Jul-26 07:33N 37°15' E 024°51'1615.9
2015-Jul-26 06:34N 37°08' E 025°09'1111.0
2015-Jul-26 05:34N 37°06' E 025°22'0 0.0
2015-Jul-26 04:34N 37°06' E 025°22'0 0.0
2015-Jul-26 03:34N 37°06' E 025°22'0 0.0
2015-Jul-26 02:33N 37°06' E 025°22'0 0.0
2015-Jul-26 01:34N 37°06' E 025°22'0 0.0
2015-Jul-26 00:34N 37°06' E 025°22'0 0.0
2015-Jul-25 23:33N 37°06' E 025°22'0 0.0
2015-Jul-25 22:34N 37°06' E 025°22'0 0.0
2015-Jul-25 21:34N 37°06' E 025°22'0 0.0
2015-Jul-25 20:33N 37°06' E 025°22'0 0.0
2015-Jul-25 19:34N 37°06' E 025°22'0 0.0
2015-Jul-25 18:34N 37°06' E 025°22'1313.1
2015-Jul-25 17:34N 37°06' E 025°06'5727.9
2015-Jul-25 15:32N 37°35' E 024°04'2526.2
2015-Jul-25 14:34N 37°49' E 023°38'8 7.7
2015-Jul-25 13:33N 37°57' E 023°38'0 0.0
2015-Jul-25 12:33N 37°57' E 023°38'0 0.0
2015-Jul-25 11:33N 37°57' E 023°38'0 0.0
2015-Jul-25 10:33N 37°57' E 023°38'1717.2
2015-Jul-25 09:34N 37°41' E 023°46'5728.3
2015-Jul-25 07:34N 37°15' E 024°50'1616.4
2015-Jul-25 06:34N 37°06' E 025°07'10 9.7
2015-Jul-25 05:34N 37°02' E 025°19'1616.2
2015-Jul-25 04:33N 36°56' E 025°38'7 0.8
2015-Jul-24 20:33N 36°53' E 025°45'2018.7
2015-Jul-24 19:28N 36°59' E 025°21'1212.9
2015-Jul-24 18:33N 37°10' E 025°15'1111.2
2015-Jul-24 17:33N 37°10' E 025°01'5426.4
2015-Jul-24 15:32N 37°35' E 024°01'2424.8
2015-Jul-24 14:34N 37°50' E 023°37'7 6.7
2015-Jul-24 13:33N 37°57' E 023°38'0 0.0
2015-Jul-24 12:33N 37°57' E 023°38'0 0.0
2015-Jul-24 11:33N 37°57' E 023°38'0 0.0
2015-Jul-24 10:33N 37°57' E 023°38'2020.4
2015-Jul-24 09:33N 37°39' E 023°51'5728.7
2015-Jul-24 07:34N 37°12' E 024°55'1615.7
2015-Jul-24 06:33N 37°10' E 025°15'7 7.1
2015-Jul-24 05:33N 37°06' E 025°22'0 0.0
2015-Jul-24 04:33N 37°06' E 025°22'0 0.0
2015-Jul-24 03:33N 37°06' E 025°22'0 0.0
2015-Jul-24 02:33N 37°06' E 025°22'0 0.0
2015-Jul-24 01:33N 37°06' E 025°22'0 0.0
2015-Jul-24 00:33N 37°06' E 025°22'0 0.0
2015-Jul-23 23:33N 37°06' E 025°22'0 0.0
2015-Jul-23 22:33N 37°06' E 025°22'0 0.0
2015-Jul-23 21:33N 37°06' E 025°22'0 0.0
2015-Jul-23 20:33N 37°06' E 025°22'0 0.0
2015-Jul-23 19:33N 37°06' E 025°22'4 4.0
2015-Jul-23 18:34N 37°09' E 025°19'1414.0
2015-Jul-23 17:34N 37°09' E 025°02'5326.3
2015-Jul-23 15:32N 37°34' E 024°02'2525.5
2015-Jul-23 14:33N 37°49' E 023°37'7 7.3
2015-Jul-23 13:33N 37°57' E 023°38'0 0.0
2015-Jul-23 12:33N 37°56' E 023°38'0 0.0
2015-Jul-23 11:33N 37°57' E 023°38'1 1.4
2015-Jul-23 10:33N 37°56' E 023°37'7826.1
2015-Jul-23 07:34N 37°09' E 024°56'1212.0
2015-Jul-23 06:33N 37°09' E 025°11'9 9.2
2015-Jul-23 05:33N 37°06' E 025°22'0 0.0
2015-Jul-23 04:34N 37°06' E 025°22'0 0.0
2015-Jul-23 03:34N 37°06' E 025°22'0 0.0
2015-Jul-23 02:34N 37°06' E 025°22'0 0.0
2015-Jul-23 01:33N 37°06' E 025°22'0 0.0
2015-Jul-23 00:33N 37°06' E 025°22'0 0.0
2015-Jul-22 23:34N 37°06' E 025°22'0 0.0
2015-Jul-22 22:33N 37°06' E 025°22'0 0.0
2015-Jul-22 21:34N 37°06' E 025°22'0 0.0
2015-Jul-22 20:34N 37°06' E 025°22'0 0.0
2015-Jul-22 19:33N 37°06' E 025°22'5 4.8
2015-Jul-22 18:34N 37°10' E 025°19'1515.1
2015-Jul-22 17:34N 37°10' E 024°60'  
Track history (hours):
 
Tides and Currents Weather Stations Pressure Air Temp Water Temp Dewpoint Dewpoint Depression Visibility Wind Speed Wind Dir Waves Ship Positions

Master Jet

Last reported at 2015-Aug-01 15:16 UTC. Time now 2015-Aug-01 16:17 UTC.
Position N 37°34' E 024°01'.

Length 74 m; draft 2.9 m.

Type: Ship. MMSI: 209349000.

Date/timePositionNaut miles runAvg speedWind from/ knotsBaromVisibWave heightAir tempDewpointWater temp
2015-Aug-01 15:16N 37°34' E 024°01'1825.0
2015-Aug-01 14:33N 37°42' E 023°42'1414.3
2015-Aug-01 13:33N 37°57' E 023°38'0 0.0
2015-Aug-01 12:33N 37°57' E 023°38'0 0.0
2015-Aug-01 11:34N 37°57' E 023°38'1 1.5
2015-Aug-01 10:34N 37°56' E 023°37'7725.5
2015-Aug-01 07:34N 37°09' E 024°53'1413.8
2015-Aug-01 06:33N 37°09' E 025°11'1211.5
2015-Aug-01 05:33N 37°00' E 025°20'1414.3
2015-Aug-01 04:33N 36°56' E 025°37'13 6.5
2015-Aug-01 02:31N 36°50' E 025°52'12 2.0
2015-Jul-31 20:33N 36°55' E 025°39'1212.3
2015-Jul-31 19:32N 36°56' E 025°23'1615.8
2015-Jul-31 18:33N 37°10' E 025°16'1212.3
2015-Jul-31 17:33N 37°10' E 025°00'5426.3
2015-Jul-31 15:29N 37°35' E 024°00'2325.2
2015-Jul-31 14:34N 37°50' E 023°37'7 7.0
2015-Jul-31 13:34N 37°57' E 023°38'0 0.0
2015-Jul-31 12:33N 37°57' E 023°38'0 0.0
2015-Jul-31 11:34N 37°57' E 023°38'0 0.0
2015-Jul-31 10:34N 37°57' E 023°38'1717.3
2015-Jul-31 09:34N 37°40' E 023°47'5828.8
2015-Jul-31 07:33N 37°15' E 024°52'1615.4
2015-Jul-31 06:33N 37°08' E 025°09'1010.3
2015-Jul-31 05:32N 37°06' E 025°22'0 0.0
2015-Jul-31 04:33N 37°06' E 025°22'0 0.0
2015-Jul-31 03:33N 37°06' E 025°22'0 0.0
2015-Jul-31 02:33N 37°06' E 025°22'0 0.0
2015-Jul-31 01:33N 37°06' E 025°22'0 0.0
2015-Jul-31 00:33N 37°06' E 025°22'0 0.0
2015-Jul-30 23:33N 37°06' E 025°22'0 0.0
2015-Jul-30 22:33N 37°06' E 025°22'0 0.0
2015-Jul-30 21:33N 37°06' E 025°22'0 0.0
2015-Jul-30 20:33N 37°06' E 025°22'0 0.0
2015-Jul-30 19:33N 37°06' E 025°22'2 1.6
2015-Jul-30 18:34N 37°08' E 025°21'1414.0
2015-Jul-30 17:33N 37°08' E 025°04'5527.0
2015-Jul-30 15:31N 37°35' E 024°03'2526.1
2015-Jul-30 14:33N 37°49' E 023°37'7 7.4
2015-Jul-30 13:33N 37°57' E 023°38'0 0.0
2015-Jul-30 12:34N 37°57' E 023°38'0 0.0
2015-Jul-30 11:33N 37°57' E 023°38'0 0.0
2015-Jul-30 10:33N 37°57' E 023°38'1616.0
2015-Jul-30 09:33N 37°42' E 023°46'5828.8
2015-Jul-30 07:34N 37°15' E 024°50'1716.7
2015-Jul-30 06:34N 37°08' E 025°09'1110.8
2015-Jul-30 05:33N 37°06' E 025°22'0 0.0
2015-Jul-30 04:33N 37°06' E 025°22'0 0.0
2015-Jul-30 03:34N 37°06' E 025°22'0 0.0
2015-Jul-30 02:33N 37°06' E 025°22'0 0.0
2015-Jul-30 01:33N 37°06' E 025°22'0 0.0
2015-Jul-30 00:33N 37°06' E 025°22'0 0.0
2015-Jul-29 23:33N 37°06' E 025°22'0 0.0
2015-Jul-29 22:33N 37°06' E 025°22'0 0.0
2015-Jul-29 21:33N 37°06' E 025°22'0 0.0
2015-Jul-29 20:33N 37°06' E 025°22'0 0.0
2015-Jul-29 19:33N 37°06' E 025°22'1 1.2
2015-Jul-29 18:34N 37°07' E 025°21'1514.7
2015-Jul-29 17:33N 37°08' E 025°03'5527.1
2015-Jul-29 15:32N 37°35' E 024°03'2525.5
2015-Jul-29 14:34N 37°50' E 023°38'7 7.0
2015-Jul-29 13:33N 37°57' E 023°38'0 0.0
2015-Jul-29 12:33N 37°57' E 023°38'0 0.0
2015-Jul-29 11:33N 37°57' E 023°38'0 0.0
2015-Jul-29 10:33N 37°57' E 023°38'1414.1
2015-Jul-29 09:34N 37°43' E 023°44'5628.0
2015-Jul-29 07:34N 37°17' E 024°47'2020.4
2015-Jul-29 06:34N 37°05' E 025°08'9 9.3
2015-Jul-29 05:34N 37°05' E 025°19'1716.8
2015-Jul-29 04:33N 36°56' E 025°37'9 1.1
2015-Jul-28 20:20N 36°51' E 025°47'1215.7
2015-Jul-28 19:33N 36°54' E 025°32'1716.9
2015-Jul-28 18:34N 37°08' E 025°21'1514.6
2015-Jul-28 17:33N 37°08' E 025°03'5426.8
2015-Jul-28 15:33N 37°35' E 024°03'2525.8
2015-Jul-28 14:34N 37°50' E 023°37'7 7.1
2015-Jul-28 13:33N 37°57' E 023°38'0 0.0
2015-Jul-28 12:33N 37°57' E 023°38'0 0.0
2015-Jul-28 11:33N 37°57' E 023°38'0 0.0
2015-Jul-28 10:33N 37°57' E 023°38'1716.6
2015-Jul-28 09:33N 37°41' E 023°46'5728.7
2015-Jul-28 07:34N 37°15' E 024°50'1717.2
2015-Jul-28 06:33N 37°08' E 025°11'10 9.8
2015-Jul-28 05:33N 37°06' E 025°22'0 0.0
2015-Jul-28 04:33N 37°06' E 025°22'0 0.0
2015-Jul-28 03:33N 37°06' E 025°22'0 0.0
2015-Jul-28 02:33N 37°06' E 025°22'0 0.0
2015-Jul-28 01:33N 37°06' E 025°22'0 0.0
2015-Jul-28 00:33N 37°06' E 025°22'0 0.0
2015-Jul-27 23:33N 37°06' E 025°22'0 0.0
2015-Jul-27 22:33N 37°06' E 025°22'0 0.0
2015-Jul-27 21:33N 37°06' E 025°22'0 0.0
2015-Jul-27 20:33N 37°06' E 025°22'0 0.0
2015-Jul-27 19:33N 37°06' E 025°22'0 0.0
2015-Jul-27 18:33N 37°06' E 025°22'1212.4
2015-Jul-27 17:33N 37°06' E 025°07'6428.5
2015-Jul-27 15:20N 37°36' E 023°57'2026.3
2015-Jul-27 14:34N 37°50' E 023°38'7 6.6
2015-Jul-27 13:33N 37°57' E 023°38'0 0.0
2015-Jul-27 12:33N 37°57' E 023°38'0 0.0
2015-Jul-27 11:33N 37°57' E 023°38'0 0.0
2015-Jul-27 10:33N 37°57' E 023°38'1414.4
2015-Jul-27 09:33N 37°43' E 023°45'5728.5
2015-Jul-27 07:33N 37°16' E 024°48'1918.8
2015-Jul-27 06:34N 37°06' E 025°08'9 8.9
2015-Jul-27 05:34N 37°04' E 025°19'1817.6
2015-Jul-27 04:33N 36°56' E 025°38'12 1.5
2015-Jul-26 20:31N 36°50' E 025°51'1516.0
2015-Jul-26 19:33N 36°54' E 025°32'1616.2
2015-Jul-26 18:34N 37°07' E 025°21'1413.8
2015-Jul-26 17:33N 37°07' E 025°04'5427.0
2015-Jul-26 15:34N 37°35' E 024°05'2626.0
2015-Jul-26 14:34N 37°49' E 023°38'8 7.7
2015-Jul-26 13:33N 37°57' E 023°38'0 0.0
2015-Jul-26 12:33N 37°57' E 023°38'0 0.0
2015-Jul-26 11:33N 37°57' E 023°38'0 0.0
2015-Jul-26 10:33N 37°57' E 023°38'1817.6
2015-Jul-26 09:34N 37°40' E 023°46'5828.8
2015-Jul-26 07:33N 37°15' E 024°51'1615.9
2015-Jul-26 06:34N 37°08' E 025°09'1111.0
2015-Jul-26 05:34N 37°06' E 025°22'0 0.0
2015-Jul-26 04:34N 37°06' E 025°22'0 0.0
2015-Jul-26 03:34N 37°06' E 025°22'0 0.0
2015-Jul-26 02:33N 37°06' E 025°22'0 0.0
2015-Jul-26 01:34N 37°06' E 025°22'0 0.0
2015-Jul-26 00:34N 37°06' E 025°22'0 0.0
2015-Jul-25 23:33N 37°06' E 025°22'0 0.0
2015-Jul-25 22:34N 37°06' E 025°22'0 0.0
2015-Jul-25 21:34N 37°06' E 025°22'0 0.0
2015-Jul-25 20:33N 37°06' E 025°22'0 0.0
2015-Jul-25 19:34N 37°06' E 025°22'0 0.0
2015-Jul-25 18:34N 37°06' E 025°22'1313.1
2015-Jul-25 17:34N 37°06' E 025°06'5727.9
2015-Jul-25 15:32N 37°35' E 024°04'2526.2
2015-Jul-25 14:34N 37°49' E 023°38'8 7.7
2015-Jul-25 13:33N 37°57' E 023°38'0 0.0
2015-Jul-25 12:33N 37°57' E 023°38'0 0.0
2015-Jul-25 11:33N 37°57' E 023°38'0 0.0
2015-Jul-25 10:33N 37°57' E 023°38'1717.2
2015-Jul-25 09:34N 37°41' E 023°46'5728.3
2015-Jul-25 07:34N 37°15' E 024°50'1616.4
2015-Jul-25 06:34N 37°06' E 025°07'10 9.7
2015-Jul-25 05:34N 37°02' E 025°19'1616.2
2015-Jul-25 04:33N 36°56' E 025°38'7 0.8
2015-Jul-24 20:33N 36°53' E 025°45'2018.7
2015-Jul-24 19:28N 36°59' E 025°21'1212.9
2015-Jul-24 18:33N 37°10' E 025°15'1111.2
2015-Jul-24 17:33N 37°10' E 025°01'5426.4
2015-Jul-24 15:32N 37°35' E 024°01'2424.8
2015-Jul-24 14:34N 37°50' E 023°37'7 6.7
2015-Jul-24 13:33N 37°57' E 023°38'0 0.0
2015-Jul-24 12:33N 37°57' E 023°38'0 0.0
2015-Jul-24 11:33N 37°57' E 023°38'0 0.0
2015-Jul-24 10:33N 37°57' E 023°38'2020.4
2015-Jul-24 09:33N 37°39' E 023°51'5728.7
2015-Jul-24 07:34N 37°12' E 024°55'1615.7
2015-Jul-24 06:33N 37°10' E 025°15'7 7.1
2015-Jul-24 05:33N 37°06' E 025°22'0 0.0
2015-Jul-24 04:33N 37°06' E 025°22'0 0.0
2015-Jul-24 03:33N 37°06' E 025°22'0 0.0
2015-Jul-24 02:33N 37°06' E 025°22'0 0.0
2015-Jul-24 01:33N 37°06' E 025°22'0 0.0
2015-Jul-24 00:33N 37°06' E 025°22'0 0.0
2015-Jul-23 23:33N 37°06' E 025°22'0 0.0
2015-Jul-23 22:33N 37°06' E 025°22'0 0.0
2015-Jul-23 21:33N 37°06' E 025°22'0 0.0
2015-Jul-23 20:33N 37°06' E 025°22'0 0.0
2015-Jul-23 19:33N 37°06' E 025°22'4 4.0
2015-Jul-23 18:34N 37°09' E 025°19'1414.0
2015-Jul-23 17:34N 37°09' E 025°02'5326.3
2015-Jul-23 15:32N 37°34' E 024°02'2525.5
2015-Jul-23 14:33N 37°49' E 023°37'7 7.3
2015-Jul-23 13:33N 37°57' E 023°38'0 0.0
2015-Jul-23 12:33N 37°56' E 023°38'0 0.0
2015-Jul-23 11:33N 37°57' E 023°38'1 1.4
2015-Jul-23 10:33N 37°56' E 023°37'7826.1
2015-Jul-23 07:34N 37°09' E 024°56'1212.0
2015-Jul-23 06:33N 37°09' E 025°11'9 9.2
2015-Jul-23 05:33N 37°06' E 025°22'0 0.0
2015-Jul-23 04:34N 37°06' E 025°22'0 0.0
2015-Jul-23 03:34N 37°06' E 025°22'0 0.0
2015-Jul-23 02:34N 37°06' E 025°22'0 0.0
2015-Jul-23 01:33N 37°06' E 025°22'0 0.0
2015-Jul-23 00:33N 37°06' E 025°22'0 0.0
2015-Jul-22 23:34N 37°06' E 025°22'0 0.0
2015-Jul-22 22:33N 37°06' E 025°22'0 0.0
2015-Jul-22 21:34N 37°06' E 025°22'0 0.0
2015-Jul-22 20:34N 37°06' E 025°22'0 0.0
2015-Jul-22 19:33N 37°06' E 025°22'5 4.8
2015-Jul-22 18:34N 37°10' E 025°19'1515.1
2015-Jul-22 17:34N 37°10' E 024°60'  

Dump ship's entire track history